Time;durP1;ratioP1;P1;durP2;ratioP2;P2;SDS_P1;SDS_P2;PMS_P1;PMS_P2;Temp;Humidity;BMP_temperature;BMP_pressure;BME280_temperature;BME280_humidity;BME280_pressure;Samples;Min_cycle;Max_cycle;Signal;HPM_P1;HPM_P2
2023/07/29 00:00:13;;;;;;;5.90;4.20;;;;;;;19.87;100.00;100637.28;5277000;28;20035;-82
2023/07/29 00:02:45;;;;;;;8.33;5.37;;;;;;;20.05;100.00;100629.28;5259973;28;20021;-90
2023/07/29 00:05:16;;;;;;;5.47;4.30;;;;;;;19.89;100.00;100621.19;5273471;28;20059;-75
2023/07/29 00:07:48;;;;;;;6.80;4.60;;;;;;;19.88;100.00;100616.88;5276576;28;20040;-86
2023/07/29 00:10:19;;;;;;;6.73;4.53;;;;;;;20.03;100.00;100627.72;5275686;28;20484;-89
2023/07/29 00:12:51;;;;;;;7.57;4.70;;;;;;;20.06;100.00;100630.09;5275781;28;20029;-88
2023/07/29 00:15:22;;;;;;;5.10;4.60;;;;;;;19.79;100.00;100626.63;5256303;28;20541;-82
2023/07/29 00:17:53;;;;;;;6.23;4.40;;;;;;;19.97;100.00;100629.19;5246693;28;20063;-78
2023/07/29 00:20:25;;;;;;;9.37;4.60;;;;;;;20.06;100.00;100630.94;5258768;28;20032;-86
2023/07/29 00:22:58;;;;;;;7.70;4.97;;;;;;;20.08;100.00;100630.75;5277149;28;20103;-88
2023/07/29 00:25:29;;;;;;;6.33;4.50;;;;;;;19.91;100.00;100633.34;5258175;28;20057;-85
2023/07/29 00:28:00;;;;;;;9.07;5.10;;;;;;;19.76;100.00;100622.44;5258466;28;20064;-75
2023/07/29 00:30:31;;;;;;;5.70;4.30;;;;;;;20.03;100.00;100631.22;5276729;28;20077;-80
2023/07/29 00:33:03;;;;;;;5.90;4.77;;;;;;;20.13;100.00;100632.94;5253781;28;20020;-77
2023/07/29 00:35:34;;;;;;;7.70;5.27;;;;;;;19.93;100.00;100622.53;5276806;28;20055;-85
2023/07/29 00:38:06;;;;;;;7.17;4.73;;;;;;;19.82;100.00;100613.03;5276574;28;20075;-74
2023/07/29 00:40:37;;;;;;;7.10;5.00;;;;;;;19.70;100.00;100604.50;5276931;28;20032;-86
2023/07/29 00:43:08;;;;;;;6.87;5.27;;;;;;;19.75;100.00;100604.84;5258967;28;20106;-86
2023/07/29 00:45:44;;;;;;;7.33;5.10;;;;;;;20.00;100.00;100612.09;5276683;28;20028;-86
2023/07/29 00:48:15;;;;;;;6.10;4.60;;;;;;;19.63;100.00;100587.53;5275721;28;20495;-89
2023/07/29 00:50:46;;;;;;;8.70;4.83;;;;;;;19.53;100.00;100591.13;5261987;28;20068;-87
2023/07/29 00:53:18;;;;;;;7.50;4.53;;;;;;;19.55;100.00;100586.50;5253989;28;20035;-74
2023/07/29 00:55:49;;;;;;;8.93;5.20;;;;;;;19.45;100.00;100583.94;5255880;28;20057;-83
2023/07/29 00:58:21;;;;;;;10.70;4.67;;;;;;;19.47;100.00;100567.84;5255259;28;20067;-87
2023/07/29 01:00:54;;;;;;;7.93;4.80;;;;;;;19.42;100.00;100594.06;5271816;28;20028;-76
2023/07/29 01:03:25;;;;;;;7.30;5.07;;;;;;;19.63;100.00;100598.16;5274948;28;20545;-87
2023/07/29 01:06:19;;;;;;;5.47;4.80;;;;;;;19.65;100.00;100593.53;5275748;28;20032;-85
2023/07/29 01:12:01;;;;;;;7.17;6.10;;;;;;;19.91;100.00;100597.94;5254027;28;20041;-84
2023/07/29 01:14:48;;;;;;;10.40;5.60;;;;;;;19.87;100.00;100604.56;5252425;28;20033;-83
2023/07/29 01:17:29;;;;;;;9.53;5.30;;;;;;;19.88;100.00;100592.97;5251354;28;20040;-87
2023/07/29 01:20:08;;;;;;;7.57;5.37;;;;;;;19.80;100.00;100585.78;5251137;28;20028;-82
2023/07/29 01:22:40;;;;;;;8.20;5.27;;;;;;;19.73;100.00;100590.06;5259643;28;20436;-88
2023/07/29 01:25:11;;;;;;;11.83;6.73;;;;;;;19.67;100.00;100597.66;5273513;28;20032;-72
2023/07/29 01:27:45;;;;;;;10.67;5.40;;;;;;;19.79;100.00;100600.88;5272435;28;20085;-78
2023/07/29 01:30:18;;;;;;;7.97;5.50;;;;;;;19.70;100.00;100607.16;5273523;28;20242;-89
2023/07/29 01:33:20;;;;;;;5.77;5.20;;;;;;;19.91;100.00;100603.25;5263913;28;20029;-87
2023/07/29 01:35:57;;;;;;;7.10;5.47;;;;;;;19.77;100.00;100613.50;5251246;28;20044;-81
2023/07/29 01:38:34;;;;;;;6.47;5.20;;;;;;;19.69;100.00;100603.66;5253995;28;20523;-86
2023/07/29 01:41:08;;;;;;;5.23;4.63;;;;;;;19.53;100.00;100595.63;5265987;28;20071;-78
2023/07/29 01:43:43;;;;;;;8.27;4.68;;;;;;;19.58;100.00;100611.91;5253552;28;20067;-81
2023/07/29 01:46:15;;;;;;;7.87;5.00;;;;;;;19.46;100.00;100611.34;5273001;28;20028;-87
2023/07/29 01:48:46;;;;;;;6.43;4.80;;;;;;;19.45;100.00;100613.16;5253757;28;20467;-82
2023/07/29 01:51:20;;;;;;;6.07;4.23;;;;;;;19.36;100.00;100600.00;5254587;28;20024;-84
2023/07/29 01:53:51;;;;;;;6.38;4.43;;;;;;;19.33;100.00;100601.13;5268057;28;20499;-86
2023/07/29 01:56:23;;;;;;;4.57;3.70;;;;;;;19.32;100.00;100604.78;5245103;28;20021;-85
2023/07/29 01:58:54;;;;;;;4.50;3.70;;;;;;;19.38;100.00;100619.25;5255139;28;20044;-88
2023/07/29 02:01:25;;;;;;;7.33;5.13;;;;;;;19.19;100.00;100605.19;5273338;28;20078;-80
2023/07/29 02:03:57;;;;;;;5.67;4.23;;;;;;;19.30;100.00;100612.91;5254405;28;20048;-81
2023/07/29 02:06:28;;;;;;;7.13;4.07;;;;;;;19.38;100.00;100622.75;5273297;28;20127;-83
2023/07/29 02:08:59;;;;;;;4.80;3.60;;;;;;;19.31;100.00;100603.09;5272899;28;20103;-87
2023/07/29 02:11:31;;;;;;;4.20;3.80;;;;;;;19.32;100.00;100616.22;5270934;28;20035;-72
2023/07/29 02:14:03;;;;;;;6.73;3.40;;;;;;;19.33;100.00;100609.94;5272754;28;20032;-86
2023/07/29 02:16:34;;;;;;;4.33;3.30;;;;;;;19.39;100.00;100610.31;5255545;28;20021;-81
2023/07/29 02:19:06;;;;;;;7.40;3.30;;;;;;;19.19;100.00;100598.06;5250783;28;20020;-81
2023/07/29 02:21:37;;;;;;;8.23;3.80;;;;;;;19.29;100.00;100590.00;5252371;28;20498;-83
2023/07/29 02:24:08;;;;;;;4.67;3.30;;;;;;;19.40;100.00;100601.34;5252125;28;20033;-81
2023/07/29 02:26:41;;;;;;;4.83;2.90;;;;;;;19.36;100.00;100595.50;5256625;28;20107;-87
2023/07/29 02:29:12;;;;;;;3.77;2.87;;;;;;;19.31;100.00;100598.63;5272731;28;20051;-87
2023/07/29 02:31:44;;;;;;;4.60;3.13;;;;;;;19.35;100.00;100593.84;5252154;28;20476;-84
2023/07/29 02:34:15;;;;;;;4.40;3.03;;;;;;;19.36;100.00;100590.19;5242518;28;20013;-87
2023/07/29 02:36:46;;;;;;;6.40;2.87;;;;;;;19.40;100.00;100602.19;5277406;28;20263;-74
2023/07/29 02:39:18;;;;;;;5.87;3.10;;;;;;;19.31;100.00;100588.00;5276286;28;20577;-83
2023/07/29 02:41:49;;;;;;;6.67;2.87;;;;;;;19.27;100.00;100605.22;5258359;28;20023;-85
2023/07/29 02:44:20;;;;;;;5.80;2.83;;;;;;;19.19;100.00;100578.63;5276566;28;20101;-87
2023/07/29 02:46:52;;;;;;;5.37;3.03;;;;;;;19.21;100.00;100603.22;5246074;28;20056;-83
2023/07/29 02:49:24;;;;;;;7.03;3.60;;;;;;;19.12;100.00;100593.50;5254554;28;20583;-82
2023/07/29 02:51:56;;;;;;;4.23;3.13;;;;;;;19.15;100.00;100577.31;5255705;28;20112;-84
2023/07/29 02:54:27;;;;;;;6.10;3.07;;;;;;;18.99;100.00;100573.47;5254657;28;20021;-87
2023/07/29 02:56:58;;;;;;;3.70;3.33;;;;;;;19.09;100.00;100587.50;5274079;28;20107;-86
2023/07/29 02:59:30;;;;;;;9.83;3.87;;;;;;;19.06;100.00;100579.03;5264740;28;20040;-87
2023/07/29 03:02:01;;;;;;;4.40;3.33;;;;;;;19.14;100.00;100578.28;5255006;28;20061;-82
2023/07/29 03:04:32;;;;;;;4.40;3.57;;;;;;;19.08;100.00;100583.19;5270502;28;20459;-80
2023/07/29 03:07:04;;;;;;;8.03;3.50;;;;;;;18.97;100.00;100578.94;5256271;28;20044;-83
2023/07/29 03:09:36;;;;;;;5.60;3.30;;;;;;;19.04;100.00;100586.31;5244406;28;20033;-86
2023/07/29 03:12:08;;;;;;;5.57;4.00;;;;;;;19.03;100.00;100579.31;5276458;28;20056;-86
2023/07/29 03:14:41;;;;;;;9.03;3.97;;;;;;;19.09;100.00;100576.88;5277495;28;20068;-82
2023/07/29 03:17:12;;;;;;;6.13;3.43;;;;;;;19.04;100.00;100581.81;5258179;28;20054;-79
2023/07/29 03:19:43;;;;;;;10.33;4.77;;;;;;;18.88;100.00;100581.69;5276553;28;20094;-86
2023/07/29 03:22:15;;;;;;;6.53;3.50;;;;;;;18.97;100.00;100584.25;5252931;28;20009;-73
2023/07/29 03:24:46;;;;;;;7.53;3.80;;;;;;;18.96;100.00;100597.69;5280372;28;20035;-74
2023/07/29 03:27:17;;;;;;;6.33;4.13;;;;;;;18.98;100.00;100601.03;5300191;28;20033;-74
2023/07/29 03:29:48;;;;;;;5.10;3.63;;;;;;;18.88;100.00;100594.97;5279926;28;20113;-73
2023/07/29 03:32:20;;;;;;;5.03;3.80;;;;;;;18.71;100.00;100565.66;5289003;28;20044;-83
2023/07/29 03:34:51;;;;;;;5.67;4.00;;;;;;;18.81;100.00;100586.78;5264158;28;20045;-71
2023/07/29 03:37:22;;;;;;;5.63;4.13;;;;;;;18.75;100.00;100588.22;5269220;28;20029;-75
2023/07/29 03:39:54;;;;;;;6.63;4.27;;;;;;;18.78;100.00;100590.56;5291683;28;20020;-79
2023/07/29 03:42:25;;;;;;;5.50;3.87;;;;;;;18.76;100.00;100589.06;5280666;28;20099;-84
2023/07/29 03:44:56;;;;;;;4.93;3.27;;;;;;;18.68;100.00;100581.84;5274563;28;20032;-82
2023/07/29 03:47:28;;;;;;;5.90;4.37;;;;;;;18.72;100.00;100601.78;5273676;28;20036;-79
2023/07/29 03:49:59;;;;;;;4.60;3.13;;;;;;;18.60;100.00;100594.06;5274753;28;20020;-74
2023/07/29 03:52:30;;;;;;;4.67;3.83;;;;;;;18.65;100.00;100598.06;5255158;28;20028;-74
2023/07/29 03:55:02;;;;;;;6.43;3.57;;;;;;;18.61;100.00;100577.16;5256891;28;20111;-84
2023/07/29 03:57:33;;;;;;;4.33;3.17;;;;;;;18.58;100.00;100572.19;5274913;28;20077;-85
2023/07/29 04:00:05;;;;;;;5.43;3.87;;;;;;;18.60;100.00;100559.59;5256626;28;20044;-86
2023/07/29 04:02:37;;;;;;;4.93;3.37;;;;;;;18.41;100.00;100549.97;5252854;28;20017;-80
2023/07/29 04:05:08;;;;;;;4.20;3.47;;;;;;;18.55;100.00;100551.28;5259670;28;20654;-82
2023/07/29 04:07:40;;;;;;;5.87;3.33;;;;;;;18.56;100.00;100549.44;5256276;28;20050;-86
2023/07/29 04:10:11;;;;;;;6.37;3.60;;;;;;;18.42;100.00;100542.84;5255972;28;20487;-84
2023/07/29 04:12:43;;;;;;;4.67;3.80;;;;;;;18.35;100.00;100537.31;5256560;28;20111;-84
2023/07/29 04:15:14;;;;;;;6.00;4.10;;;;;;;18.36;100.00;100537.16;5273513;28;20107;-83
2023/07/29 04:17:46;;;;;;;6.10;3.93;;;;;;;18.44;100.00;100552.31;5273086;28;20073;-79
2023/07/29 04:20:17;;;;;;;8.20;4.60;;;;;;;18.36;100.00;100568.97;5254435;28;20035;-76
2023/07/29 04:22:48;;;;;;;4.43;3.73;;;;;;;18.40;100.00;100571.34;5252117;28;20032;-82
2023/07/29 04:25:19;;;;;;;6.53;4.60;;;;;;;18.40;100.00;100593.38;5243711;28;20032;-84
2023/07/29 04:27:51;;;;;;;5.10;3.70;;;;;;;18.41;100.00;100599.50;5264823;28;20029;-83
2023/07/29 04:30:22;;;;;;;4.13;3.63;;;;;;;18.35;100.00;100596.47;5273864;28;20461;-85
2023/07/29 04:32:53;;;;;;;5.83;3.90;;;;;;;18.31;100.00;100597.75;5273099;28;20021;-78
2023/07/29 04:35:25;;;;;;;4.57;3.40;;;;;;;18.29;100.00;100598.91;5273118;28;20040;-82
2023/07/29 04:37:56;;;;;;;4.20;3.37;;;;;;;18.29;100.00;100598.91;5258826;28;20106;-84
2023/07/29 04:40:28;;;;;;;4.23;3.13;;;;;;;18.31;100.00;100591.63;5253111;28;20033;-77
2023/07/29 04:43:02;;;;;;;5.57;3.53;;;;;;;18.38;100.00;100605.94;5253229;28;20048;-81
2023/07/29 04:45:33;;;;;;;5.35;2.88;;;;;;;18.33;100.00;100614.34;5253085;28;20039;-80
2023/07/29 04:48:05;;;;;;;3.43;2.77;;;;;;;18.25;100.00;100619.56;5234084;28;20017;-82
2023/07/29 04:50:36;;;;;;;6.37;2.70;;;;;;;18.35;100.00;100611.53;5252372;28;20896;-80
2023/07/29 04:53:07;;;;;;;4.23;3.00;;;;;;;18.34;100.00;100608.06;5253000;28;20021;-81
2023/07/29 04:55:42;;;;;;;3.07;2.40;;;;;;;18.35;100.00;100615.03;5234983;28;20040;-84
2023/07/29 04:58:13;;;;;;;3.27;2.53;;;;;;;18.25;100.00;100603.66;5252343;28;20315;-83
2023/07/29 05:00:46;;;;;;;3.40;3.00;;;;;;;18.33;100.00;100603.75;5234501;28;20462;-80
2023/07/29 05:03:18;;;;;;;2.83;2.45;;;;;;;18.34;100.00;100618.69;5267769;28;20127;-82
2023/07/29 05:05:51;;;;;;;4.40;2.67;;;;;;;18.27;100.00;100607.00;5267646;28;20421;-84
2023/07/29 05:08:22;;;;;;;4.70;2.37;;;;;;;18.34;100.00;100623.13;5273201;28;20487;-75
2023/07/29 05:10:54;;;;;;;3.10;2.20;;;;;;;18.35;100.00;100625.63;5272281;28;20068;-80
2023/07/29 05:13:25;;;;;;;4.17;2.67;;;;;;;18.32;100.00;100620.63;5272908;28;20035;-82
2023/07/29 05:15:57;;;;;;;4.33;2.80;;;;;;;18.37;100.00;100628.97;5273041;28;20042;-83
2023/07/29 05:18:28;;;;;;;3.13;2.27;;;;;;;18.42;100.00;100630.34;5271549;28;20033;-83
2023/07/29 05:20:59;;;;;;;4.77;2.93;;;;;;;18.45;100.00;100640.66;5273443;28;20025;-82
2023/07/29 05:23:30;;;;;;;2.43;2.07;;;;;;;18.33;100.00;100621.44;5253758;28;20081;-81
2023/07/29 05:26:02;;;;;;;3.57;2.23;;;;;;;18.43;100.00;100624.06;5272660;28;20548;-84
2023/07/29 05:28:33;;;;;;;3.00;2.30;;;;;;;18.40;100.00;100622.53;5262127;28;20053;-80
2023/07/29 05:31:04;;;;;;;6.70;2.87;;;;;;;18.34;100.00;100621.31;5250617;28;20021;-79
2023/07/29 05:33:36;;;;;;;4.10;2.50;;;;;;;18.40;100.00;100621.72;5267047;28;20125;-85
2023/07/29 05:36:07;;;;;;;5.93;3.03;;;;;;;18.38;100.00;100622.69;5272518;28;20040;-83
2023/07/29 05:38:38;;;;;;;4.03;2.50;;;;;;;18.36;100.00;100616.69;5272474;28;20024;-82
2023/07/29 05:41:10;;;;;;;7.10;2.90;;;;;;;18.38;100.00;100627.97;5272308;28;20084;-72
2023/07/29 05:43:43;;;;;;;3.97;2.30;;;;;;;18.36;100.00;100623.81;5271818;28;20058;-83
2023/07/29 05:46:14;;;;;;;5.03;2.77;;;;;;;18.37;100.00;100618.38;5272209;28;20055;-81
2023/07/29 05:48:45;;;;;;;4.57;2.60;;;;;;;18.42;100.00;100625.88;5271613;28;20032;-84
2023/07/29 05:51:17;;;;;;;4.47;2.60;;;;;;;18.48;100.00;100629.75;5272135;28;20086;-87
2023/07/29 05:53:48;;;;;;;4.90;2.40;;;;;;;18.45;100.00;100624.75;5273110;28;20154;-81
2023/07/29 05:56:19;;;;;;;6.20;3.13;;;;;;;18.51;100.00;100629.44;5250247;28;20352;-82
2023/07/29 05:58:51;;;;;;;3.10;2.53;;;;;;;18.56;100.00;100635.13;5273064;28;20032;-77
2023/07/29 06:01:22;;;;;;;4.80;2.60;;;;;;;18.57;100.00;100638.63;5272447;28;20038;-81
2023/07/29 06:03:54;;;;;;;4.23;3.03;;;;;;;18.74;100.00;100629.00;5253928;28;20013;-84
2023/07/29 06:06:25;;;;;;;4.53;2.70;;;;;;;18.72;100.00;100615.91;5272511;28;20021;-84
2023/07/29 06:08:56;;;;;;;2.87;2.20;;;;;;;18.78;100.00;100618.94;5273760;28;20020;-74
2023/07/29 06:11:27;;;;;;;3.73;2.50;;;;;;;18.87;100.00;100623.31;5276232;28;20045;-84
2023/07/29 06:13:59;;;;;;;3.83;2.57;;;;;;;18.95;100.00;100635.81;5276433;28;20025;-82
2023/07/29 06:16:30;;;;;;;5.07;2.40;;;;;;;19.03;100.00;100621.78;5276084;28;20021;-76
2023/07/29 06:19:01;;;;;;;3.53;2.23;;;;;;;19.10;100.00;100622.84;5275206;28;20111;-83
2023/07/29 06:21:33;;;;;;;5.00;2.37;;;;;;;19.20;100.00;100628.09;5276063;28;20417;-75
2023/07/29 06:24:04;;;;;;;4.10;2.50;;;;;;;19.22;100.00;100618.97;5276559;28;20024;-81
2023/07/29 06:26:36;;;;;;;5.63;3.07;;;;;;;19.22;100.00;100616.31;5276766;28;20020;-83
2023/07/29 06:29:07;;;;;;;5.17;3.03;;;;;;;19.26;100.00;100623.97;5258374;28;20020;-82
2023/07/29 06:31:38;;;;;;;4.10;2.83;;;;;;;19.21;100.00;100613.84;5258097;28;20025;-73
2023/07/29 06:34:09;;;;;;;5.67;2.50;;;;;;;19.27;100.00;100634.44;5274838;28;20033;-81
2023/07/29 06:36:41;;;;;;;4.63;2.80;;;;;;;19.26;100.00;100627.47;5258505;28;20064;-85
2023/07/29 06:39:12;;;;;;;4.70;2.80;;;;;;;19.29;100.00;100623.66;5259697;28;20025;-85
2023/07/29 06:41:43;;;;;;;5.07;2.20;;;;;;;19.33;100.00;100615.25;5276168;28;20017;-81
2023/07/29 06:44:15;;;;;;;5.23;2.57;;;;;;;19.44;100.00;100629.25;5275824;28;20563;-77
2023/07/29 06:46:46;;;;;;;3.13;2.17;;;;;;;19.21;100.00;100588.13;5260033;28;20029;-80
2023/07/29 06:49:20;;;;;;;3.67;2.40;;;;;;;19.42;100.00;100629.41;5277262;28;20021;-80
2023/07/29 06:51:51;;;;;;;3.70;2.33;;;;;;;19.42;100.00;100631.22;5268502;28;20035;-87
2023/07/29 06:54:25;;;;;;;3.33;2.03;;;;;;;19.58;100.00;100631.31;5277961;28;20016;-86
2023/07/29 06:56:57;;;;;;;5.28;2.28;;;;;;;19.64;100.00;100626.38;5279921;28;20420;-76
2023/07/29 06:59:28;;;;;;;3.67;2.10;;;;;;;19.75;100.00;100634.09;5279676;28;20178;-77
2023/07/29 07:02:00;;;;;;;2.63;2.10;;;;;;;19.90;100.00;100636.97;5276845;28;20008;-77
2023/07/29 07:04:31;;;;;;;4.90;2.40;;;;;;;19.99;100.00;100637.00;5281663;28;20151;-79
2023/07/29 07:07:02;;;;;;;4.30;2.20;;;;;;;20.06;100.00;100644.22;5274179;28;20028;-74
2023/07/29 07:09:34;;;;;;;5.10;2.40;;;;;;;20.21;100.00;100640.13;5270776;28;20032;-80
2023/07/29 07:12:05;;;;;;;3.47;2.20;;;;;;;20.35;100.00;100657.28;5280590;28;20029;-75
2023/07/29 07:14:37;;;;;;;3.83;2.10;;;;;;;20.36;100.00;100646.47;5280448;28;20047;-74
2023/07/29 07:17:09;;;;;;;2.97;2.23;;;;;;;20.27;100.00;100642.13;5262789;28;20044;-82
2023/07/29 07:19:40;;;;;;;6.80;2.30;;;;;;;20.35;100.00;100651.97;5278884;28;20391;-85
2023/07/29 07:22:11;;;;;;;3.07;2.30;;;;;;;20.40;100.00;100652.31;5261262;28;20021;-78
2023/07/29 07:24:46;;;;;;;6.07;2.00;;;;;;;20.24;100.00;100651.28;5260400;28;20102;-81
2023/07/29 07:27:17;;;;;;;2.90;2.00;;;;;;;20.08;100.00;100641.41;5279854;28;20020;-75
2023/07/29 07:29:48;;;;;;;4.60;2.10;;;;;;;20.42;100.00;100663.63;5273851;28;20028;-82
2023/07/29 07:32:20;;;;;;;3.50;2.00;;;;;;;20.48;100.00;100662.13;5260503;28;20029;-86
2023/07/29 07:34:51;;;;;;;3.00;2.20;;;;;;;20.51;100.00;100646.69;5256480;28;20139;-84
2023/07/29 07:37:22;;;;;;;3.53;2.28;;;;;;;20.72;100.00;100653.38;5254506;28;20098;-81
2023/07/29 07:39:54;;;;;;;3.50;2.40;;;;;;;20.93;100.00;100678.66;5254731;28;20113;-82
2023/07/29 07:42:25;;;;;;;3.28;1.83;;;;;;;20.98;100.00;100675.56;5254627;28;20033;-81
2023/07/29 07:44:56;;;;;;;5.88;2.33;;;;;;;21.06;100.00;100675.56;5254267;28;20095;-82
2023/07/29 07:47:28;;;;;;;5.95;2.38;;;;;;;21.25;100.00;100673.56;5272310;28;20037;-85
2023/07/29 07:49:59;;;;;;;2.42;1.90;;;;;;;21.74;100.00;100669.16;5274313;28;20127;-75
2023/07/29 07:52:30;;;;;;;3.85;1.75;;;;;;;21.81;100.00;100672.84;5273784;28;20100;-72
2023/07/29 07:55:02;;;;;;;2.80;1.40;;;;;;;22.13;100.00;100670.25;5273433;28;20025;-84
2023/07/29 07:57:33;;;;;;;2.83;1.48;;;;;;;22.25;100.00;100673.34;5274345;28;20028;-78
2023/07/29 08:00:05;;;;;;;3.08;1.30;;;;;;;22.45;100.00;100672.91;5274010;28;20044;-82
2023/07/29 08:02:36;;;;;;;3.40;1.40;;;;;;;22.75;100.00;100673.09;5253556;28;20271;-83
2023/07/29 08:05:08;;;;;;;6.45;1.85;;;;;;;22.75;100.00;100672.25;5236976;28;20083;-79
2023/07/29 08:07:39;;;;;;;2.55;1.42;;;;;;;22.83;100.00;100661.53;5277757;28;20387;-84
2023/07/29 08:10:10;;;;;;;2.60;1.67;;;;;;;22.88;100.00;100664.50;5257268;28;20043;-80
2023/07/29 08:12:42;;;;;;;2.35;1.25;;;;;;;22.91;100.00;100669.50;5275317;28;20028;-81
2023/07/29 08:15:13;;;;;;;2.25;1.60;;;;;;;23.02;100.00;100675.41;5255984;28;20024;-82
2023/07/29 08:17:45;;;;;;;1.65;1.13;;;;;;;23.06;100.00;100684.72;5273280;28;20094;-88
2023/07/29 08:20:17;;;;;;;1.45;1.23;;;;;;;22.82;100.00;100676.72;5274439;28;20232;-88
2023/07/29 08:22:48;;;;;;;2.40;1.20;;;;;;;22.80;100.00;100688.56;5274352;28;20024;-85
2023/07/29 08:25:19;;;;;;;2.60;1.20;;;;;;;22.53;100.00;100680.88;5256323;28;20044;-84
2023/07/29 08:27:51;;;;;;;2.42;1.27;;;;;;;22.42;100.00;100684.78;5274182;28;20028;-81
2023/07/29 08:30:22;;;;;;;2.13;1.38;;;;;;;22.33;100.00;100675.97;5255822;28;20028;-81
2023/07/29 08:32:53;;;;;;;3.35;1.33;;;;;;;22.20;100.00;100675.72;5272748;28;20094;-86
2023/07/29 08:35:25;;;;;;;1.83;1.20;;;;;;;22.19;100.00;100677.53;5273487;28;20048;-88
2023/07/29 08:37:56;;;;;;;3.45;1.55;;;;;;;22.13;100.00;100670.25;5273855;28;20501;-83
2023/07/29 08:40:29;;;;;;;4.22;1.30;;;;;;;22.10;100.00;100668.75;5274766;28;20032;-81
2023/07/29 08:43:05;;;;;;;2.15;1.40;;;;;;;22.11;100.00;100672.25;5260260;28;20402;-74
2023/07/29 08:45:37;;;;;;;2.75;1.27;;;;;;;21.91;100.00;100677.97;5253064;28;20047;-86
2023/07/29 08:48:10;;;;;;;2.60;1.38;;;;;;;22.44;100.00;100664.09;5252613;28;20029;-86
2023/07/29 08:50:44;;;;;;;2.30;1.35;;;;;;;23.39;100.00;100667.59;5253725;28;20037;-78
2023/07/29 08:53:16;;;;;;;2.47;1.30;;;;;;;24.10;100.00;100679.72;5234777;28;20025;-85
2023/07/29 08:55:48;;;;;;;3.03;1.38;;;;;;;24.22;100.00;100672.06;5271361;28;20135;-87
2023/07/29 08:58:21;;;;;;;1.73;1.13;;;;;;;24.57;100.00;100663.41;5255528;28;20108;-86
2023/07/29 09:00:52;;;;;;;2.60;1.07;;;;;;;24.54;100.00;100671.81;5274365;28;20390;-85
2023/07/29 09:03:24;;;;;;;3.97;1.00;;;;;;;24.34;100.00;100675.09;5254341;28;20067;-87
2023/07/29 09:05:57;;;;;;;4.05;1.30;;;;;;;24.21;100.00;100681.09;5273828;28;20082;-87
2023/07/29 09:08:29;;;;;;;2.92;1.25;;;;;;;24.38;100.00;100675.53;5273498;28;20089;-84
2023/07/29 09:11:00;;;;;;;1.67;1.08;;;;;;;24.28;100.00;100667.78;5254986;28;20499;-83
2023/07/29 09:13:32;;;;;;;1.95;1.00;;;;;;;24.53;100.00;100678.16;5272889;28;20095;-76
2023/07/29 09:16:04;;;;;;;2.08;1.25;;;;;;;24.38;100.00;100676.34;5273564;28;20028;-85
2023/07/29 09:18:35;;;;;;;2.70;1.10;;;;;;;24.49;100.00;100655.50;5254631;28;20119;-88
2023/07/29 09:21:07;;;;;;;2.92;0.93;;;;;;;24.79;100.00;100644.66;5273388;28;20032;-87
2023/07/29 09:23:41;;;;;;;1.75;0.85;;;;;;;25.11;100.00;100657.72;5273994;28;20031;-88
2023/07/29 09:26:12;;;;;;;2.70;1.02;;;;;;;25.75;100.00;100644.34;5272634;28;20033;-84
2023/07/29 09:28:43;;;;;;;1.80;1.23;;;;;;;26.43;100.00;100647.31;5272229;28;20075;-84
2023/07/29 09:31:22;;;;;;;2.13;1.00;;;;;;;26.99;100.00;100653.38;5272479;28;20017;-86
2023/07/29 09:34:03;;;;;;;3.13;0.95;;;;;;;27.44;100.00;100659.16;5252590;28;20111;-80
2023/07/29 09:36:35;;;;;;;4.55;1.13;;;;;;;27.88;100.00;100663.00;5239562;28;20029;-87
2023/07/29 09:39:11;;;;;;;1.77;1.00;;;;;;;27.87;100.00;100655.16;5270854;28;20033;-86
2023/07/29 09:41:47;;;;;;;1.30;0.95;;;;;;;27.59;100.00;100650.84;5271716;28;20403;-78
2023/07/29 09:44:18;;;;;;;3.97;1.65;;;;;;;27.14;100.00;100657.75;5274985;28;20021;-81
2023/07/29 09:46:50;;;;;;;1.63;1.15;;;;;;;26.74;100.00;100651.28;5276353;28;20056;-81
2023/07/29 09:49:22;;;;;;;2.28;0.90;;;;;;;26.53;100.00;100668.41;5277413;28;20506;-85
2023/07/29 09:51:55;;;;;;;1.85;1.20;;;;;;;26.17;100.00;100664.97;5261611;28;20442;-84
2023/07/29 09:54:27;;;;;;;4.53;1.20;;;;;;;25.98;100.00;100670.06;5284510;28;20071;-83
2023/07/29 09:56:58;;;;;;;2.58;1.00;;;;;;;25.59;100.00;100670.44;5281952;28;20042;-83
2023/07/29 09:59:36;;;;;;;3.03;1.00;;;;;;;25.33;100.00;100671.06;5279295;28;20035;-82
2023/07/29 10:02:16;;;;;;;2.63;1.60;;;;;;;25.24;100.00;100675.75;5257556;28;20369;-86
2023/07/29 10:04:49;;;;;;;1.52;1.20;;;;;;;24.79;100.00;100671.44;5266493;28;20029;-76
2023/07/29 10:07:22;;;;;;;3.22;1.25;;;;;;;24.85;100.00;100654.59;5295496;28;20017;-81
2023/07/29 10:09:55;;;;;;;3.05;1.40;;;;;;;25.06;100.00;100658.31;5277391;28;20048;-75
2023/07/29 10:12:28;;;;;;;2.65;1.20;;;;;;;25.47;100.00;100653.22;5264457;28;20040;-80
2023/07/29 10:15:04;;;;;;;2.60;1.02;;;;;;;26.66;100.00;100657.69;5258212;28;20024;-84
2023/07/29 10:17:37;;;;;;;2.33;1.13;;;;;;;26.63;100.00;100651.91;5276236;28;20032;-86
2023/07/29 10:20:10;;;;;;;4.55;1.10;;;;;;;26.82;100.00;100656.47;5245093;28;20365;-80
2023/07/29 10:22:45;;;;;;;3.10;1.08;;;;;;;27.47;100.00;100642.59;5256564;28;20112;-85
2023/07/29 10:25:21;;;;;;;2.95;1.15;;;;;;;28.27;100.00;100665.75;5255712;28;20021;-84
2023/07/29 10:27:56;;;;;;;1.65;1.13;;;;;;;28.66;100.00;100648.72;5245191;28;20024;-80
2023/07/29 10:30:28;;;;;;;1.42;0.90;;;;;;;28.88;100.00;100661.84;5274820;28;20194;-80
2023/07/29 10:33:03;;;;;;;2.22;0.90;;;;;;;29.39;100.00;100656.47;5257968;28;20031;-84
2023/07/29 10:35:36;;;;;;;1.63;1.20;;;;;;;29.66;91.32;100652.66;5277064;28;20067;-84
2023/07/29 10:38:08;;;;;;;3.13;1.00;;;;;;;29.66;82.78;100650.78;5276557;28;20029;-85
2023/07/29 10:40:56;;;;;;;2.45;1.30;;;;;;;30.15;67.71;100635.66;5256810;28;20025;-82
2023/07/29 10:43:32;;;;;;;1.60;1.40;;;;;;;30.35;63.77;100646.22;5257384;28;20017;-76
2023/07/29 10:46:17;;;;;;;4.00;1.10;;;;;;;30.48;63.71;100642.47;5273815;28;20620;-74
2023/07/29 10:48:56;;;;;;;1.58;1.17;;;;;;;30.02;57.60;100634.78;5270116;28;20020;-80
2023/07/29 10:51:35;;;;;;;3.75;1.00;;;;;;;29.66;54.46;100639.16;5284350;28;20048;-78
2023/07/29 10:54:14;;;;;;;1.80;1.20;;;;;;;29.33;55.09;100633.06;5293677;28;20252;-74
2023/07/29 10:56:49;;;;;;;2.30;1.17;;;;;;;28.69;57.02;100640.22;5279696;28;20360;-84
2023/07/29 10:59:21;;;;;;;2.40;1.40;;;;;;;28.37;54.77;100642.91;5264019;28;20058;-84
2023/07/29 11:01:56;;;;;;;3.00;1.50;;;;;;;28.27;55.11;100622.66;5240012;28;20033;-81
2023/07/29 11:04:30;;;;;;;2.75;0.90;;;;;;;28.11;58.35;100639.31;5254893;28;20468;-79
2023/07/29 11:07:05;;;;;;;2.55;1.25;;;;;;;27.91;57.71;100648.28;5254844;28;20025;-81
2023/07/29 11:09:51;;;;;;;3.38;1.20;;;;;;;27.69;58.83;100647.72;5254368;28;20029;-82
2023/07/29 11:12:43;;;;;;;2.20;1.02;;;;;;;27.67;60.99;100647.94;5259104;28;20066;-86
2023/07/29 11:15:21;;;;;;;1.20;1.02;;;;;;;26.99;60.61;100639.09;5275001;28;20125;-84
2023/07/29 11:17:52;;;;;;;1.35;1.10;;;;;;;26.94;60.97;100647.78;5274254;28;20549;-80
2023/07/29 11:20:28;;;;;;;2.60;1.80;;;;;;;26.85;62.79;100654.41;5274782;28;20135;-85
2023/07/29 11:23:01;;;;;;;3.33;1.40;;;;;;;26.67;63.98;100640.53;5258178;28;20549;-87
2023/07/29 11:25:33;;;;;;;4.35;1.30;;;;;;;26.63;66.41;100646.53;5277358;28;20024;-78
2023/07/29 11:28:05;;;;;;;2.05;1.30;;;;;;;26.84;62.82;100647.38;5249021;28;20071;-77
2023/07/29 11:30:39;;;;;;;3.42;1.45;;;;;;;27.04;62.15;100642.03;5254244;28;20021;-81
2023/07/29 11:33:11;;;;;;;1.40;1.10;;;;;;;26.77;60.78;100626.72;5234414;28;20539;-81
2023/07/29 11:35:42;;;;;;;2.90;1.30;;;;;;;26.99;62.83;100636.41;5236457;28;20028;-81
2023/07/29 11:38:18;;;;;;;2.85;1.30;;;;;;;27.11;63.59;100639.34;5253607;28;20028;-87
2023/07/29 11:41:00;;;;;;;3.03;1.35;;;;;;;27.35;63.40;100632.47;5236127;28;20074;-87
2023/07/29 11:43:35;;;;;;;2.15;1.10;;;;;;;27.45;63.68;100621.31;5269372;28;20029;-83